Дата Пункты Температура Давл., мм. Влажн., % Ветер Погодные явления
Воздуха Воды Направл. Скорость
09.10.17 06:00 Одесса 9.0 15.0 751 81 З 4 06 часов
09.10.17 03:00 Одесса 9.0 15.0 749 93 З 4 03 часа
08.10.17 09:00 Одесса 15.0 15.0 746 82 Ю 4 21 час
08.10.17 06:00 Одесса 15.0 15.0 747 83 Ю 6 18 часов
08.10.17 03:00 Одесса 13.0 15.0 748 94 В 7 15 часов
08.10.17 12:00 Одесса 12.0 15.0 749 95 С-В 9 12 часов
08.10.17 09:00 Одесса 10.0 15.0 751 96 С-В 6 09 часов
08.10.17 06:00 Одесса 11.0 15.0 752 93 С 5 06 часов
08.10.17 03:00 Одесса 9.0 15.0 754 95 С 5 03 часа
07.10.17 09:00 Одесса 10.0 16.0 756 93 С-В 6 21 час
07.10.17 06:00 Одесса 10.0 16.0 757 93 С 3 18 часов
07.10.17 03:00 Одесса 11.0 16.0 757 92 С 2 15 часов
07.10.17 12:00 Одесса 11.0 16.0 757 93 С 3 12 часов
07.10.17 09:00 Одесса 10.0 16.0 757 93 С-В 3 09 часов
07.10.17 06:00 Одесса 10.0 16.0 756 90 С 2 06 часов
07.10.17 03:00 Одесса 12.0 16.0 756 71 С 1 03 часа
06.10.17 09:00 Одесса 12.0 16.0 754 84 С-З 1 21 час
06.10.17 06:00 Одесса 14.0 16.0 752 62 С-З 2 18 часов
06.10.17 03:00 Одесса 21.0 16.0 751 42 С-З 2 15 часов
06.10.17 12:00 Одесса 23.0 16.0 750 45 С-З 2 12 часов
Количество строк
1 2 3 4 5 6 7 8 9 10
Page 4 of 284